Strona główna
METAR-TAF:

METAR-TAF

Lotnisko :

Lydd, Anglia

Szerokość geograficzna: 50-57N, Długość geograficzna: 000-56E, wysokość: 3 m

Aktualna obserwacja pogody

Raport powstał 24 minut temu, godzina 13:20 UTC
Wiatr 13 kt od wschodnio-północny wschód
Temperatura 20°C
Wilgotność 68%
Ciśnienie 1007 hPa
Widzialność 10 km lub więcej

METAR: EGMD 031320Z AUTO 07013KT 9999 NCD 20/14 Q1007

czas: 14:44 (13:44 UTC)

Prognoza

Raport powstał 1 godzina i 47 minut temu, godzina 11:57 UTC
Prognoza ważna od 03 godzina 11 UTC do 03 godzina 18 UTC
Wiatr 12 kt od wschód
Widzialność 10 km lub więcej
Brak chmur poniżej 1500 m i brak chmur cumulonimbus
Prawdopodobieństwo 30% :
Przejściowo
od 03 godzina 11 UTC do 03 godzina 14 UTC
Widzialność: 7000 m
burza, deszcz
Prawdopodobieństwo 30% :
Przejściowo
od 03 godzina 14 UTC do 03 godzina 18 UTC
Widzialność: 8000 m
Mało chmury na wysokości 2000 ft
słaby deszcz

TAF: EGMD 031157Z 0311/0318 09012KT CAVOK PROB30 TEMPO 0311/0314 7000 TSRA PROB30 TEMPO 0314/0318 8000 -RA FEW020

Obserwacja i prognoza pogody dla ponad 4000 lotnisk (raport METAR i TAF).

Dostępne stacje oznaczono żółtymi i czerwonymi punktami na mapie.

Najedź kursorem aby zobaczyć nazwę stacji.

Kliknij aby zobaczyć obserwacje i prognozy pogody.

Aby zmienić mapę: kliknij na zielony przycisk z czarnym krzyżykiem, aby powiększyć; na zielony przycisk z myślnikiem, aby pomniejszyć; na zielone strzałki, aby przejść do map sąsiednich.


METAR-TAF: